sensor_id;sensor_type;location;lat;lon;timestamp;P1;durP1;ratioP1;P2;durP2;ratioP2
21266;SDS011;10791;53.108;18.326;2023-04-25T00:02:08;5.80;;;3.60;;
21266;SDS011;10791;53.108;18.326;2023-04-25T00:07:12;6.63;;;3.30;;
21266;SDS011;10791;53.108;18.326;2023-04-25T00:12:15;6.27;;;3.50;;
21266;SDS011;10791;53.108;18.326;2023-04-25T00:17:19;5.67;;;4.07;;
21266;SDS011;10791;53.108;18.326;2023-04-25T00:22:22;6.70;;;4.70;;
21266;SDS011;10791;53.108;18.326;2023-04-25T00:27:26;9.13;;;6.30;;
21266;SDS011;10791;53.108;18.326;2023-04-25T00:32:29;9.67;;;6.53;;
21266;SDS011;10791;53.108;18.326;2023-04-25T00:37:33;7.93;;;5.90;;
21266;SDS011;10791;53.108;18.326;2023-04-25T00:42:36;8.07;;;5.93;;
21266;SDS011;10791;53.108;18.326;2023-04-25T00:47:41;8.70;;;6.70;;
21266;SDS011;10791;53.108;18.326;2023-04-25T00:52:45;11.33;;;6.77;;
21266;SDS011;10791;53.108;18.326;2023-04-25T00:57:48;9.07;;;6.57;;
21266;SDS011;10791;53.108;18.326;2023-04-25T01:02:53;8.50;;;6.23;;
21266;SDS011;10791;53.108;18.326;2023-04-25T01:07:56;8.43;;;6.10;;
21266;SDS011;10791;53.108;18.326;2023-04-25T01:13:00;7.43;;;5.60;;
21266;SDS011;10791;53.108;18.326;2023-04-25T01:18:04;6.20;;;4.60;;
21266;SDS011;10791;53.108;18.326;2023-04-25T01:23:09;5.07;;;4.13;;
21266;SDS011;10791;53.108;18.326;2023-04-25T01:28:12;5.47;;;4.07;;
21266;SDS011;10791;53.108;18.326;2023-04-25T01:33:16;5.63;;;3.60;;
21266;SDS011;10791;53.108;18.326;2023-04-25T01:38:21;4.87;;;3.80;;
21266;SDS011;10791;53.108;18.326;2023-04-25T01:43:24;4.60;;;3.60;;
21266;SDS011;10791;53.108;18.326;2023-04-25T01:48:29;5.53;;;3.70;;
21266;SDS011;10791;53.108;18.326;2023-04-25T01:53:32;6.83;;;4.23;;
21266;SDS011;10791;53.108;18.326;2023-04-25T01:58:36;4.63;;;3.73;;
21266;SDS011;10791;53.108;18.326;2023-04-25T02:03:39;5.83;;;4.13;;
21266;SDS011;10791;53.108;18.326;2023-04-25T02:08:43;7.37;;;4.53;;
21266;SDS011;10791;53.108;18.326;2023-04-25T02:13:46;8.10;;;4.47;;
21266;SDS011;10791;53.108;18.326;2023-04-25T02:18:49;5.63;;;4.43;;
21266;SDS011;10791;53.108;18.326;2023-04-25T02:23:55;6.03;;;4.03;;
21266;SDS011;10791;53.108;18.326;2023-04-25T02:28:58;6.03;;;4.23;;
21266;SDS011;10791;53.108;18.326;2023-04-25T02:34:02;7.33;;;4.40;;
21266;SDS011;10791;53.108;18.326;2023-04-25T02:39:05;6.53;;;4.07;;
21266;SDS011;10791;53.108;18.326;2023-04-25T02:44:09;6.57;;;4.33;;
21266;SDS011;10791;53.108;18.326;2023-04-25T02:49:12;6.87;;;4.47;;
21266;SDS011;10791;53.108;18.326;2023-04-25T02:54:16;6.57;;;4.17;;
21266;SDS011;10791;53.108;18.326;2023-04-25T02:59:19;5.60;;;3.97;;
21266;SDS011;10791;53.108;18.326;2023-04-25T03:04:22;5.83;;;3.63;;
21266;SDS011;10791;53.108;18.326;2023-04-25T03:09:26;4.37;;;3.67;;
21266;SDS011;10791;53.108;18.326;2023-04-25T03:14:29;4.83;;;3.47;;
21266;SDS011;10791;53.108;18.326;2023-04-25T03:19:33;5.50;;;3.73;;
21266;SDS011;10791;53.108;18.326;2023-04-25T03:24:36;4.23;;;3.50;;
21266;SDS011;10791;53.108;18.326;2023-04-25T03:29:39;4.77;;;3.37;;
21266;SDS011;10791;53.108;18.326;2023-04-25T03:34:43;4.90;;;3.07;;
21266;SDS011;10791;53.108;18.326;2023-04-25T03:39:46;4.50;;;3.13;;
21266;SDS011;10791;53.108;18.326;2023-04-25T03:44:50;3.97;;;2.67;;
21266;SDS011;10791;53.108;18.326;2023-04-25T03:53:10;3.80;;;2.70;;
21266;SDS011;10791;53.108;18.326;2023-04-25T03:58:14;4.37;;;2.80;;
21266;SDS011;10791;53.108;18.326;2023-04-25T04:03:17;3.97;;;2.77;;
21266;SDS011;10791;53.108;18.326;2023-04-25T04:08:20;6.10;;;2.50;;
21266;SDS011;10791;53.108;18.326;2023-04-25T04:13:25;3.30;;;2.70;;
21266;SDS011;10791;53.108;18.326;2023-04-25T04:18:32;3.93;;;1.90;;
21266;SDS011;10791;53.108;18.326;2023-04-25T04:23:35;4.03;;;2.10;;
21266;SDS011;10791;53.108;18.326;2023-04-25T04:28:41;4.30;;;2.00;;
21266;SDS011;10791;53.108;18.326;2023-04-25T04:33:45;5.03;;;2.37;;
21266;SDS011;10791;53.108;18.326;2023-04-25T04:38:49;3.40;;;2.23;;
21266;SDS011;10791;53.108;18.326;2023-04-25T04:43:52;3.33;;;1.90;;
21266;SDS011;10791;53.108;18.326;2023-04-25T04:48:55;5.17;;;1.83;;
21266;SDS011;10791;53.108;18.326;2023-04-25T04:53:58;2.50;;;1.63;;
21266;SDS011;10791;53.108;18.326;2023-04-25T04:59:04;3.63;;;2.07;;
21266;SDS011;10791;53.108;18.326;2023-04-25T05:04:08;2.80;;;1.87;;
21266;SDS011;10791;53.108;18.326;2023-04-25T05:09:11;2.53;;;1.63;;
21266;SDS011;10791;53.108;18.326;2023-04-25T05:14:15;2.57;;;2.00;;
21266;SDS011;10791;53.108;18.326;2023-04-25T05:19:19;3.43;;;1.97;;
21266;SDS011;10791;53.108;18.326;2023-04-25T05:24:23;3.23;;;2.20;;
21266;SDS011;10791;53.108;18.326;2023-04-25T05:29:26;3.03;;;1.87;;
21266;SDS011;10791;53.108;18.326;2023-04-25T05:34:29;2.80;;;1.70;;
21266;SDS011;10791;53.108;18.326;2023-04-25T05:39:33;2.90;;;1.93;;
21266;SDS011;10791;53.108;18.326;2023-04-25T05:44:39;3.97;;;2.07;;
21266;SDS011;10791;53.108;18.326;2023-04-25T05:49:44;4.00;;;2.23;;
21266;SDS011;10791;53.108;18.326;2023-04-25T05:54:47;3.20;;;2.07;;
21266;SDS011;10791;53.108;18.326;2023-04-25T05:59:51;4.00;;;1.97;;
21266;SDS011;10791;53.108;18.326;2023-04-25T06:04:56;4.47;;;2.27;;
21266;SDS011;10791;53.108;18.326;2023-04-25T06:09:59;3.47;;;2.17;;
21266;SDS011;10791;53.108;18.326;2023-04-25T06:15:03;3.70;;;2.23;;
21266;SDS011;10791;53.108;18.326;2023-04-25T06:20:28;2.20;;;1.87;;
21266;SDS011;10791;53.108;18.326;2023-04-25T06:25:31;4.50;;;2.37;;
21266;SDS011;10791;53.108;18.326;2023-04-25T06:30:35;3.80;;;2.43;;
21266;SDS011;10791;53.108;18.326;2023-04-25T06:35:38;4.73;;;2.40;;
21266;SDS011;10791;53.108;18.326;2023-04-25T06:40:42;6.73;;;2.47;;
21266;SDS011;10791;53.108;18.326;2023-04-25T06:45:45;5.13;;;3.30;;
21266;SDS011;10791;53.108;18.326;2023-04-25T06:50:49;5.00;;;2.83;;
21266;SDS011;10791;53.108;18.326;2023-04-25T06:55:53;5.70;;;3.00;;
21266;SDS011;10791;53.108;18.326;2023-04-25T07:00:56;6.30;;;2.50;;
21266;SDS011;10791;53.108;18.326;2023-04-25T07:06:00;3.93;;;3.03;;
21266;SDS011;10791;53.108;18.326;2023-04-25T07:11:03;5.10;;;3.13;;
21266;SDS011;10791;53.108;18.326;2023-04-25T07:16:06;9.23;;;4.03;;
21266;SDS011;10791;53.108;18.326;2023-04-25T07:21:10;5.17;;;2.73;;
21266;SDS011;10791;53.108;18.326;2023-04-25T07:26:13;4.80;;;2.60;;
21266;SDS011;10791;53.108;18.326;2023-04-25T07:31:17;5.10;;;2.73;;
21266;SDS011;10791;53.108;18.326;2023-04-25T07:36:20;4.93;;;2.90;;
21266;SDS011;10791;53.108;18.326;2023-04-25T07:41:23;4.70;;;3.10;;
21266;SDS011;10791;53.108;18.326;2023-04-25T07:46:27;4.23;;;2.83;;
21266;SDS011;10791;53.108;18.326;2023-04-25T07:51:30;3.60;;;2.40;;
21266;SDS011;10791;53.108;18.326;2023-04-25T07:56:33;3.73;;;2.30;;
21266;SDS011;10791;53.108;18.326;2023-04-25T08:01:53;3.43;;;2.17;;
21266;SDS011;10791;53.108;18.326;2023-04-25T08:06:56;4.33;;;2.13;;
21266;SDS011;10791;53.108;18.326;2023-04-25T08:12:00;6.17;;;2.53;;
21266;SDS011;10791;53.108;18.326;2023-04-25T08:17:04;5.27;;;1.93;;
21266;SDS011;10791;53.108;18.326;2023-04-25T08:22:07;2.90;;;2.20;;
21266;SDS011;10791;53.108;18.326;2023-04-25T08:27:11;4.23;;;1.93;;
21266;SDS011;10791;53.108;18.326;2023-04-25T08:32:15;3.57;;;2.10;;
21266;SDS011;10791;53.108;18.326;2023-04-25T08:37:21;6.00;;;2.20;;
21266;SDS011;10791;53.108;18.326;2023-04-25T08:42:24;3.67;;;2.10;;
21266;SDS011;10791;53.108;18.326;2023-04-25T08:47:31;3.37;;;1.80;;
21266;SDS011;10791;53.108;18.326;2023-04-25T08:52:37;5.97;;;2.37;;
21266;SDS011;10791;53.108;18.326;2023-04-25T08:57:46;3.20;;;1.73;;
21266;SDS011;10791;53.108;18.326;2023-04-25T09:02:49;3.83;;;2.37;;
21266;SDS011;10791;53.108;18.326;2023-04-25T09:07:53;10.80;;;2.67;;
21266;SDS011;10791;53.108;18.326;2023-04-25T09:13:06;2.60;;;1.93;;
21266;SDS011;10791;53.108;18.326;2023-04-25T09:23:38;3.67;;;2.10;;
21266;SDS011;10791;53.108;18.326;2023-04-25T09:28:43;5.30;;;2.40;;
21266;SDS011;10791;53.108;18.326;2023-04-25T09:33:47;5.03;;;2.80;;
21266;SDS011;10791;53.108;18.326;2023-04-25T09:38:52;3.50;;;2.23;;
21266;SDS011;10791;53.108;18.326;2023-04-25T09:43:57;5.03;;;2.53;;
21266;SDS011;10791;53.108;18.326;2023-04-25T09:49:06;4.20;;;2.27;;
21266;SDS011;10791;53.108;18.326;2023-04-25T09:54:10;3.40;;;2.20;;
21266;SDS011;10791;53.108;18.326;2023-04-25T09:59:13;5.27;;;2.87;;
21266;SDS011;10791;53.108;18.326;2023-04-25T10:04:23;4.03;;;2.27;;
21266;SDS011;10791;53.108;18.326;2023-04-25T10:09:33;5.43;;;2.53;;
21266;SDS011;10791;53.108;18.326;2023-04-25T10:14:40;4.80;;;2.40;;
21266;SDS011;10791;53.108;18.326;2023-04-25T10:19:44;4.63;;;3.00;;
21266;SDS011;10791;53.108;18.326;2023-04-25T10:24:48;3.40;;;2.20;;
21266;SDS011;10791;53.108;18.326;2023-04-25T10:30:02;4.63;;;2.73;;
21266;SDS011;10791;53.108;18.326;2023-04-25T10:35:14;3.03;;;1.80;;
21266;SDS011;10791;53.108;18.326;2023-04-25T10:40:21;2.37;;;1.73;;
21266;SDS011;10791;53.108;18.326;2023-04-25T10:45:25;3.20;;;2.07;;
21266;SDS011;10791;53.108;18.326;2023-04-25T10:50:36;4.03;;;2.00;;
21266;SDS011;10791;53.108;18.326;2023-04-25T10:55:51;2.47;;;2.10;;
21266;SDS011;10791;53.108;18.326;2023-04-25T11:00:54;3.30;;;2.10;;
21266;SDS011;10791;53.108;18.326;2023-04-25T11:05:59;3.27;;;2.30;;
21266;SDS011;10791;53.108;18.326;2023-04-25T11:11:04;5.40;;;2.67;;
21266;SDS011;10791;53.108;18.326;2023-04-25T11:16:08;3.47;;;2.50;;
21266;SDS011;10791;53.108;18.326;2023-04-25T11:21:15;3.83;;;2.40;;
21266;SDS011;10791;53.108;18.326;2023-04-25T11:26:19;2.57;;;2.00;;
21266;SDS011;10791;53.108;18.326;2023-04-25T11:31:24;5.07;;;2.17;;
21266;SDS011;10791;53.108;18.326;2023-04-25T11:36:28;3.87;;;2.90;;
21266;SDS011;10791;53.108;18.326;2023-04-25T11:41:32;4.37;;;2.70;;
21266;SDS011;10791;53.108;18.326;2023-04-25T11:46:35;3.70;;;2.50;;
21266;SDS011;10791;53.108;18.326;2023-04-25T11:51:42;4.10;;;2.93;;
21266;SDS011;10791;53.108;18.326;2023-04-25T11:56:47;4.63;;;3.17;;
21266;SDS011;10791;53.108;18.326;2023-04-25T12:01:51;3.83;;;2.67;;
21266;SDS011;10791;53.108;18.326;2023-04-25T12:06:54;3.17;;;2.50;;
21266;SDS011;10791;53.108;18.326;2023-04-25T12:11:58;3.20;;;2.20;;
21266;SDS011;10791;53.108;18.326;2023-04-25T12:17:05;3.73;;;2.60;;
21266;SDS011;10791;53.108;18.326;2023-04-25T12:22:23;4.07;;;2.23;;
21266;SDS011;10791;53.108;18.326;2023-04-25T12:27:27;4.73;;;2.67;;
21266;SDS011;10791;53.108;18.326;2023-04-25T12:32:31;4.83;;;2.33;;
21266;SDS011;10791;53.108;18.326;2023-04-25T12:37:34;4.23;;;2.40;;
21266;SDS011;10791;53.108;18.326;2023-04-25T12:42:37;4.17;;;2.43;;
21266;SDS011;10791;53.108;18.326;2023-04-25T12:47:41;7.30;;;2.87;;
21266;SDS011;10791;53.108;18.326;2023-04-25T12:52:44;9.93;;;3.33;;
21266;SDS011;10791;53.108;18.326;2023-04-25T12:57:47;4.77;;;3.03;;
21266;SDS011;10791;53.108;18.326;2023-04-25T13:02:51;4.63;;;3.00;;
21266;SDS011;10791;53.108;18.326;2023-04-25T13:07:54;4.07;;;2.67;;
21266;SDS011;10791;53.108;18.326;2023-04-25T13:12:57;6.03;;;3.57;;
21266;SDS011;10791;53.108;18.326;2023-04-25T13:18:01;4.63;;;2.40;;
21266;SDS011;10791;53.108;18.326;2023-04-25T13:23:06;5.07;;;2.40;;
21266;SDS011;10791;53.108;18.326;2023-04-25T13:28:09;3.60;;;2.43;;
21266;SDS011;10791;53.108;18.326;2023-04-25T13:33:14;2.90;;;2.40;;
21266;SDS011;10791;53.108;18.326;2023-04-25T13:38:18;3.23;;;2.53;;
21266;SDS011;10791;53.108;18.326;2023-04-25T13:43:21;3.83;;;2.57;;
21266;SDS011;10791;53.108;18.326;2023-04-25T13:48:25;3.37;;;2.40;;
21266;SDS011;10791;53.108;18.326;2023-04-25T13:53:28;3.23;;;2.40;;
21266;SDS011;10791;53.108;18.326;2023-04-25T13:58:31;5.40;;;3.07;;
21266;SDS011;10791;53.108;18.326;2023-04-25T14:03:35;7.13;;;2.37;;
21266;SDS011;10791;53.108;18.326;2023-04-25T14:08:39;5.17;;;2.60;;
21266;SDS011;10791;53.108;18.326;2023-04-25T14:13:42;4.60;;;2.60;;
21266;SDS011;10791;53.108;18.326;2023-04-25T14:18:46;3.77;;;2.10;;
21266;SDS011;10791;53.108;18.326;2023-04-25T14:23:49;5.53;;;1.80;;
21266;SDS011;10791;53.108;18.326;2023-04-25T14:28:53;3.10;;;2.07;;
21266;SDS011;10791;53.108;18.326;2023-04-25T14:33:57;3.87;;;2.20;;
21266;SDS011;10791;53.108;18.326;2023-04-25T14:39:01;4.83;;;2.40;;
21266;SDS011;10791;53.108;18.326;2023-04-25T14:44:04;6.93;;;2.63;;
21266;SDS011;10791;53.108;18.326;2023-04-25T14:49:08;4.07;;;2.20;;
21266;SDS011;10791;53.108;18.326;2023-04-25T14:54:11;5.07;;;2.83;;
21266;SDS011;10791;53.108;18.326;2023-04-25T14:59:15;8.73;;;3.60;;
21266;SDS011;10791;53.108;18.326;2023-04-25T15:04:19;4.73;;;1.50;;
21266;SDS011;10791;53.108;18.326;2023-04-25T15:09:22;3.20;;;0.90;;
21266;SDS011;10791;53.108;18.326;2023-04-25T15:14:26;2.80;;;1.00;;
21266;SDS011;10791;53.108;18.326;2023-04-25T15:19:29;2.17;;;1.20;;
21266;SDS011;10791;53.108;18.326;2023-04-25T15:24:33;1.93;;;1.07;;
21266;SDS011;10791;53.108;18.326;2023-04-25T15:29:36;2.70;;;1.07;;
21266;SDS011;10791;53.108;18.326;2023-04-25T15:34:40;5.70;;;1.60;;
21266;SDS011;10791;53.108;18.326;2023-04-25T15:39:43;2.87;;;1.60;;
21266;SDS011;10791;53.108;18.326;2023-04-25T15:44:50;3.63;;;1.67;;
21266;SDS011;10791;53.108;18.326;2023-04-25T15:49:53;4.20;;;1.57;;
21266;SDS011;10791;53.108;18.326;2023-04-25T15:54:57;4.83;;;1.90;;
21266;SDS011;10791;53.108;18.326;2023-04-25T16:00:01;2.10;;;1.77;;
21266;SDS011;10791;53.108;18.326;2023-04-25T16:05:07;4.43;;;2.23;;
21266;SDS011;10791;53.108;18.326;2023-04-25T16:10:11;2.80;;;1.90;;
21266;SDS011;10791;53.108;18.326;2023-04-25T16:15:16;5.27;;;2.57;;
21266;SDS011;10791;53.108;18.326;2023-04-25T16:20:19;5.23;;;2.73;;
21266;SDS011;10791;53.108;18.326;2023-04-25T16:25:24;5.83;;;2.97;;
21266;SDS011;10791;53.108;18.326;2023-04-25T16:30:28;6.83;;;3.53;;
21266;SDS011;10791;53.108;18.326;2023-04-25T16:35:32;5.73;;;3.30;;
21266;SDS011;10791;53.108;18.326;2023-04-25T16:40:36;7.73;;;2.73;;
21266;SDS011;10791;53.108;18.326;2023-04-25T16:45:40;5.90;;;2.90;;
21266;SDS011;10791;53.108;18.326;2023-04-25T16:50:43;4.23;;;2.93;;
21266;SDS011;10791;53.108;18.326;2023-04-25T16:55:46;7.33;;;3.27;;
21266;SDS011;10791;53.108;18.326;2023-04-25T17:00:51;7.23;;;3.60;;
21266;SDS011;10791;53.108;18.326;2023-04-25T17:05:55;6.33;;;3.33;;
21266;SDS011;10791;53.108;18.326;2023-04-25T17:11:00;4.70;;;2.70;;
21266;SDS011;10791;53.108;18.326;2023-04-25T17:16:04;8.10;;;4.07;;
21266;SDS011;10791;53.108;18.326;2023-04-25T17:21:09;9.87;;;4.97;;
21266;SDS011;10791;53.108;18.326;2023-04-25T17:26:13;9.23;;;5.07;;
21266;SDS011;10791;53.108;18.326;2023-04-25T17:31:18;8.43;;;4.70;;
21266;SDS011;10791;53.108;18.326;2023-04-25T17:36:23;8.40;;;3.67;;
21266;SDS011;10791;53.108;18.326;2023-04-25T17:41:27;8.37;;;3.30;;
21266;SDS011;10791;53.108;18.326;2023-04-25T17:46:31;10.00;;;4.37;;
21266;SDS011;10791;53.108;18.326;2023-04-25T17:51:37;18.97;;;8.63;;
21266;SDS011;10791;53.108;18.326;2023-04-25T17:56:45;9.70;;;4.80;;
21266;SDS011;10791;53.108;18.326;2023-04-25T18:01:48;7.83;;;3.20;;
21266;SDS011;10791;53.108;18.326;2023-04-25T18:06:53;7.27;;;3.60;;
21266;SDS011;10791;53.108;18.326;2023-04-25T18:11:59;10.07;;;3.80;;
21266;SDS011;10791;53.108;18.326;2023-04-25T18:17:03;13.10;;;4.00;;
21266;SDS011;10791;53.108;18.326;2023-04-25T18:22:10;9.90;;;3.27;;
21266;SDS011;10791;53.108;18.326;2023-04-25T18:27:18;8.40;;;3.37;;
21266;SDS011;10791;53.108;18.326;2023-04-25T18:32:25;9.13;;;3.53;;
21266;SDS011;10791;53.108;18.326;2023-04-25T18:37:34;12.93;;;4.63;;
21266;SDS011;10791;53.108;18.326;2023-04-25T18:42:45;10.70;;;4.87;;
21266;SDS011;10791;53.108;18.326;2023-04-25T18:47:51;9.83;;;4.17;;
21266;SDS011;10791;53.108;18.326;2023-04-25T18:52:56;9.33;;;4.63;;
21266;SDS011;10791;53.108;18.326;2023-04-25T18:58:04;8.17;;;4.23;;
21266;SDS011;10791;53.108;18.326;2023-04-25T19:03:11;13.33;;;5.50;;
21266;SDS011;10791;53.108;18.326;2023-04-25T19:08:16;14.07;;;6.27;;
21266;SDS011;10791;53.108;18.326;2023-04-25T19:13:21;14.67;;;6.13;;
21266;SDS011;10791;53.108;18.326;2023-04-25T19:18:25;14.33;;;5.17;;
21266;SDS011;10791;53.108;18.326;2023-04-25T19:23:31;12.70;;;5.60;;
21266;SDS011;10791;53.108;18.326;2023-04-25T19:28:36;13.60;;;5.00;;
21266;SDS011;10791;53.108;18.326;2023-04-25T19:33:45;10.13;;;4.70;;
21266;SDS011;10791;53.108;18.326;2023-04-25T19:38:50;15.23;;;5.57;;
21266;SDS011;10791;53.108;18.326;2023-04-25T19:44:04;10.77;;;5.87;;
21266;SDS011;10791;53.108;18.326;2023-04-25T19:49:12;16.23;;;5.63;;
21266;SDS011;10791;53.108;18.326;2023-04-25T19:54:16;11.27;;;5.73;;
21266;SDS011;10791;53.108;18.326;2023-04-25T19:59:25;12.33;;;5.20;;
21266;SDS011;10791;53.108;18.326;2023-04-25T20:04:30;12.37;;;5.70;;
21266;SDS011;10791;53.108;18.326;2023-04-25T20:09:39;21.87;;;6.90;;
21266;SDS011;10791;53.108;18.326;2023-04-25T20:14:45;11.33;;;5.87;;
21266;SDS011;10791;53.108;18.326;2023-04-25T20:19:49;15.67;;;6.00;;
21266;SDS011;10791;53.108;18.326;2023-04-25T20:24:53;17.13;;;6.77;;
21266;SDS011;10791;53.108;18.326;2023-04-25T20:29:56;16.37;;;6.37;;
21266;SDS011;10791;53.108;18.326;2023-04-25T20:35:07;14.10;;;6.30;;
21266;SDS011;10791;53.108;18.326;2023-04-25T20:40:12;10.93;;;5.87;;
21266;SDS011;10791;53.108;18.326;2023-04-25T20:45:17;12.17;;;5.77;;
21266;SDS011;10791;53.108;18.326;2023-04-25T20:50:21;11.33;;;5.27;;
21266;SDS011;10791;53.108;18.326;2023-04-25T20:55:25;9.80;;;4.60;;
21266;SDS011;10791;53.108;18.326;2023-04-25T21:00:28;11.03;;;5.17;;
21266;SDS011;10791;53.108;18.326;2023-04-25T21:05:31;10.23;;;5.13;;
21266;SDS011;10791;53.108;18.326;2023-04-25T21:10:35;14.33;;;5.50;;
21266;SDS011;10791;53.108;18.326;2023-04-25T21:15:38;13.17;;;5.33;;
21266;SDS011;10791;53.108;18.326;2023-04-25T21:20:42;12.13;;;5.20;;
21266;SDS011;10791;53.108;18.326;2023-04-25T21:25:45;16.83;;;5.60;;
21266;SDS011;10791;53.108;18.326;2023-04-25T21:30:50;17.97;;;6.27;;
21266;SDS011;10791;53.108;18.326;2023-04-25T21:35:54;8.37;;;4.97;;
21266;SDS011;10791;53.108;18.326;2023-04-25T21:40:58;10.83;;;5.23;;
21266;SDS011;10791;53.108;18.326;2023-04-25T21:46:01;11.13;;;5.23;;
21266;SDS011;10791;53.108;18.326;2023-04-25T21:51:07;10.53;;;5.07;;
21266;SDS011;10791;53.108;18.326;2023-04-25T21:56:11;11.30;;;4.77;;
21266;SDS011;10791;53.108;18.326;2023-04-25T22:01:14;10.43;;;4.60;;
21266;SDS011;10791;53.108;18.326;2023-04-25T22:06:18;9.23;;;5.10;;
21266;SDS011;10791;53.108;18.326;2023-04-25T22:11:21;9.93;;;4.47;;
21266;SDS011;10791;53.108;18.326;2023-04-25T22:16:26;18.53;;;6.27;;
21266;SDS011;10791;53.108;18.326;2023-04-25T22:21:30;10.30;;;4.83;;
21266;SDS011;10791;53.108;18.326;2023-04-25T22:26:34;9.67;;;5.43;;
21266;SDS011;10791;53.108;18.326;2023-04-25T22:31:37;9.70;;;5.17;;
21266;SDS011;10791;53.108;18.326;2023-04-25T22:36:40;9.93;;;4.57;;
21266;SDS011;10791;53.108;18.326;2023-04-25T22:41:43;16.17;;;5.83;;
21266;SDS011;10791;53.108;18.326;2023-04-25T22:46:48;10.93;;;4.80;;
21266;SDS011;10791;53.108;18.326;2023-04-25T22:51:51;10.50;;;5.33;;
21266;SDS011;10791;53.108;18.326;2023-04-25T22:56:57;12.87;;;6.17;;
21266;SDS011;10791;53.108;18.326;2023-04-25T23:02:01;13.73;;;5.83;;
21266;SDS011;10791;53.108;18.326;2023-04-25T23:07:05;14.43;;;5.50;;
21266;SDS011;10791;53.108;18.326;2023-04-25T23:12:08;14.27;;;4.77;;
21266;SDS011;10791;53.108;18.326;2023-04-25T23:17:12;10.50;;;5.63;;
21266;SDS011;10791;53.108;18.326;2023-04-25T23:22:15;16.80;;;6.10;;
21266;SDS011;10791;53.108;18.326;2023-04-25T23:27:19;8.73;;;4.80;;
21266;SDS011;10791;53.108;18.326;2023-04-25T23:32:22;14.90;;;4.87;;
21266;SDS011;10791;53.108;18.326;2023-04-25T23:37:27;9.87;;;4.90;;
21266;SDS011;10791;53.108;18.326;2023-04-25T23:42:32;12.47;;;4.53;;
21266;SDS011;10791;53.108;18.326;2023-04-25T23:47:36;11.03;;;4.47;;
21266;SDS011;10791;53.108;18.326;2023-04-25T23:52:40;10.80;;;4.17;;
21266;SDS011;10791;53.108;18.326;2023-04-25T23:57:43;17.43;;;4.60;;
